createdAt,value
2018-12-13T00:04:31.713Z,28.73
2018-12-13T00:09:33.869Z,29.80
2018-12-13T00:14:36.103Z,29.93
2018-12-13T00:19:38.169Z,29.93
2018-12-13T00:24:40.317Z,26.53
2018-12-13T00:29:42.484Z,27.53
2018-12-13T00:34:44.661Z,26.07
2018-12-13T00:39:46.861Z,25.40
2018-12-13T00:44:49.154Z,24.67
2018-12-13T00:49:51.331Z,23.80
2018-12-13T00:54:53.573Z,23.73
2018-12-13T00:59:55.741Z,26.87
2018-12-13T01:04:57.790Z,24.63
2018-12-13T01:09:59.853Z,23.47
2018-12-13T01:15:09.892Z,23.03
2018-12-13T01:20:12.053Z,24.20
2018-12-13T01:25:15.153Z,23.93
2018-12-13T01:30:17.328Z,22.50
2018-12-13T01:35:19.493Z,24.43
2018-12-13T01:40:21.769Z,23.77
2018-12-13T01:45:23.945Z,23.33
2018-12-13T01:50:26.201Z,23.20
2018-12-13T01:55:28.254Z,23.23
2018-12-13T02:00:30.437Z,22.30
2018-12-13T02:05:32.485Z,24.03
2018-12-13T02:10:34.686Z,23.07
2018-12-13T02:15:36.965Z,23.03
2018-12-13T02:20:40.013Z,22.67
2018-12-13T02:25:42.277Z,23.00
2018-12-13T02:30:44.557Z,21.53
2018-12-13T02:35:46.704Z,22.63
2018-12-13T02:40:49.498Z,21.90
2018-12-13T02:45:51.771Z,23.77
2018-12-13T02:50:53.828Z,23.83
2018-12-13T02:55:56.020Z,24.03
2018-12-13T03:00:58.094Z,24.97
2018-12-13T03:06:00.257Z,25.00
2018-12-13T03:11:02.461Z,24.60
2018-12-13T03:16:04.732Z,25.40
2018-12-13T03:21:08.805Z,26.23
2018-12-13T03:26:17.622Z,26.53
2018-12-13T03:31:19.789Z,26.80
2018-12-13T03:36:21.889Z,27.63
2018-12-13T03:41:24.221Z,26.57
2018-12-13T03:46:26.492Z,27.17
2018-12-13T03:51:36.299Z,26.97
2018-12-13T03:56:38.471Z,27.50
2018-12-13T04:01:40.541Z,26.30
2018-12-13T04:06:42.965Z,24.33
2018-12-13T04:11:45.128Z,26.77
2018-12-13T04:16:47.291Z,24.97
2018-12-13T04:21:50.145Z,26.03
2018-12-13T04:26:52.290Z,26.47
2018-12-13T04:31:54.478Z,27.10
2018-12-13T04:36:56.534Z,25.70
2018-12-13T04:41:58.733Z,27.13
2018-12-13T04:47:00.781Z,28.93
2018-12-13T04:52:03.238Z,27.53
2018-12-13T04:57:05.414Z,28.67
2018-12-13T05:02:14.624Z,27.17
2018-12-13T05:07:16.954Z,29.43
2018-12-13T05:12:18.997Z,27.47
2018-12-13T05:17:28.305Z,27.73
2018-12-13T05:22:30.373Z,27.77
2018-12-13T05:27:39.361Z,28.90
2018-12-13T05:32:41.449Z,28.93
2018-12-13T05:37:48.221Z,27.93
2018-12-13T05:42:47.734Z,30.40
2018-12-13T05:47:50.236Z,30.90
2018-12-13T05:52:52.722Z,28.63
2018-12-13T05:57:54.768Z,29.20
2018-12-13T06:02:56.825Z,29.73
2018-12-13T06:07:59.117Z,28.40
2018-12-13T06:13:01.581Z,28.13
2018-12-13T06:18:06.809Z,26.60
2018-12-13T06:23:08.013Z,26.27
2018-12-13T06:28:10.169Z,26.30
2018-12-13T06:33:12.358Z,29.47
2018-12-13T06:38:14.701Z,29.67
2018-12-13T06:43:16.865Z,37.37
2018-12-13T06:48:18.945Z,74.87
2018-12-13T06:53:21.249Z,46.07
2018-12-13T06:58:23.525Z,40.83
2018-12-13T07:03:32.594Z,32.20
2018-12-13T07:08:34.800Z,30.87
2018-12-13T07:13:37.000Z,26.00
2018-12-13T07:18:39.059Z,27.93
2018-12-13T07:23:41.222Z,25.37
2018-12-13T07:28:43.398Z,25.63
2018-12-13T07:33:46.753Z,26.30
2018-12-13T07:38:49.183Z,25.97
2018-12-13T07:43:51.256Z,27.50
2018-12-13T07:48:56.415Z,26.97
2018-12-13T07:53:57.394Z,27.37
2018-12-13T07:58:59.538Z,26.97
2018-12-13T08:04:01.721Z,25.17
2018-12-13T08:09:06.673Z,25.70
2018-12-13T08:14:09.885Z,26.07
2018-12-13T08:19:12.053Z,25.77
2018-12-13T08:24:16.258Z,25.73
2018-12-13T08:29:21.485Z,26.47
2018-12-13T08:34:24.701Z,27.57
2018-12-13T08:39:26.781Z,27.90
2018-12-13T08:44:28.997Z,29.07
2018-12-13T08:49:31.230Z,28.93
2018-12-13T08:54:33.402Z,29.83
2018-12-13T08:59:35.577Z,30.13
2018-12-13T09:04:38.534Z,29.37
2018-12-13T09:09:40.737Z,30.63
2018-12-13T09:14:42.814Z,30.00
2018-12-13T09:19:44.873Z,30.80
2018-12-13T09:24:47.159Z,30.90
2018-12-13T09:29:49.230Z,31.50
2018-12-13T09:34:51.289Z,30.97
2018-12-13T09:39:54.377Z,30.67
2018-12-13T09:44:56.581Z,34.57
2018-12-13T09:49:58.845Z,29.77
2018-12-13T09:55:05.619Z,31.63
2018-12-13T10:00:07.583Z,31.13
2018-12-13T10:05:10.857Z,33.57
2018-12-13T10:10:14.305Z,36.10
2018-12-13T10:15:16.582Z,34.43
2018-12-13T10:20:18.873Z,34.07
2018-12-13T10:25:21.038Z,35.17
2018-12-13T10:30:23.294Z,32.47
2018-12-13T10:35:25.475Z,29.73
2018-12-13T10:40:27.993Z,32.10
2018-12-13T10:45:30.037Z,30.20
2018-12-13T10:50:32.234Z,28.03
2018-12-13T10:55:34.828Z,26.97
2018-12-13T11:00:45.389Z,25.83
2018-12-13T11:05:47.556Z,25.13
2018-12-13T11:10:49.757Z,25.10
2018-12-13T11:15:52.007Z,24.87
2018-12-13T11:20:54.198Z,24.40
2018-12-13T11:25:56.341Z,27.40
2018-12-13T11:30:58.637Z,27.00
2018-12-13T11:36:00.806Z,24.20
2018-12-13T11:41:03.209Z,22.50
2018-12-13T11:46:05.421Z,22.20
2018-12-13T11:51:07.576Z,22.37
2018-12-13T11:56:09.876Z,21.07
2018-12-13T12:01:12.077Z,19.83
2018-12-13T12:06:14.369Z,21.20
2018-12-13T12:11:16.457Z,20.37
2018-12-13T12:16:18.541Z,21.27
2018-12-13T12:21:20.710Z,19.40
2018-12-13T12:26:23.018Z,20.90
2018-12-13T12:31:25.077Z,21.20
2018-12-13T12:36:27.676Z,20.80
2018-12-13T12:41:29.945Z,19.10
2018-12-13T12:46:32.161Z,19.23
2018-12-13T12:51:34.334Z,20.40
2018-12-13T12:56:37.597Z,19.17
2018-12-13T13:01:40.309Z,21.43
2018-12-13T13:06:42.654Z,20.27
2018-12-13T13:17:13.500Z,20.43
2018-12-13T13:22:15.550Z,21.13
2018-12-13T13:27:17.626Z,21.27
2018-12-13T13:32:19.737Z,20.93
2018-12-13T13:37:21.929Z,21.67
2018-12-13T13:42:24.092Z,21.53
2018-12-13T13:47:26.670Z,21.97
2018-12-13T13:52:30.070Z,22.63
2018-12-13T13:57:33.112Z,21.20
2018-12-13T14:02:35.454Z,19.53
2018-12-13T14:07:37.502Z,20.73
2018-12-13T14:12:39.572Z,21.20
2018-12-13T14:17:42.675Z,23.00
2018-12-13T14:22:54.218Z,22.33
2018-12-13T14:27:58.047Z,27.23
2018-12-13T14:33:00.530Z,24.23
2018-12-13T14:38:03.239Z,23.53
2018-12-13T14:43:06.909Z,23.30
2018-12-13T14:48:09.141Z,23.50
2018-12-13T14:53:11.649Z,24.53
2018-12-13T14:58:13.741Z,22.37
2018-12-13T15:03:15.987Z,27.97
2018-12-13T15:08:18.034Z,30.10
2018-12-13T15:13:20.162Z,25.67
2018-12-13T15:18:22.518Z,25.33
2018-12-13T15:23:25.674Z,22.93
2018-12-13T15:28:27.829Z,23.07
2018-12-13T15:33:36.957Z,21.50
2018-12-13T15:38:39.265Z,21.20
2018-12-13T15:43:41.442Z,21.40
2018-12-13T15:48:43.554Z,20.43
2018-12-13T15:53:46.715Z,19.83
2018-12-13T15:58:54.914Z,19.30
2018-12-13T16:03:58.297Z,21.23
2018-12-13T16:09:00.461Z,19.70
2018-12-13T16:14:03.601Z,20.67
2018-12-13T16:19:05.921Z,22.07
2018-12-13T16:24:08.197Z,23.10
2018-12-13T16:29:10.345Z,24.03
2018-12-13T16:34:12.569Z,24.17
2018-12-13T16:39:14.845Z,24.97
2018-12-13T16:44:16.889Z,25.37
2018-12-13T16:49:19.658Z,26.23
2018-12-13T16:54:22.445Z,36.57
2018-12-13T16:59:24.913Z,36.57
2018-12-13T17:04:27.201Z,36.10
2018-12-13T17:09:29.790Z,34.50
2018-12-13T17:14:32.596Z,30.90
2018-12-13T17:19:34.713Z,28.17
2018-12-13T17:24:36.997Z,28.30
2018-12-13T17:29:39.337Z,30.53
2018-12-13T17:34:41.968Z,30.07
2018-12-13T17:39:44.725Z,29.40
2018-12-13T17:44:46.987Z,28.13
2018-12-13T17:49:49.784Z,26.90
2018-12-13T17:54:52.106Z,29.30
2018-12-13T17:59:54.462Z,29.43
2018-12-13T18:04:57.649Z,31.77
2018-12-13T18:10:03.989Z,33.10
2018-12-13T18:15:07.169Z,32.77
2018-12-13T18:20:16.177Z,32.53
2018-12-13T18:25:18.894Z,32.07
2018-12-13T18:30:21.208Z,32.03
2018-12-13T18:35:23.421Z,33.37
2018-12-13T18:40:25.710Z,34.27
2018-12-13T18:45:32.894Z,32.57
2018-12-13T18:50:35.138Z,31.07
2018-12-13T18:55:37.186Z,31.27
2018-12-13T19:00:39.334Z,30.53
2018-12-13T19:05:41.651Z,28.17
2018-12-13T19:10:43.934Z,29.40
2018-12-13T19:15:45.991Z,30.10
2018-12-13T19:20:48.084Z,30.33
2018-12-13T19:25:50.162Z,30.43
2018-12-13T19:30:52.197Z,30.10
2018-12-13T19:35:54.475Z,29.10
2018-12-13T19:40:56.646Z,30.13
2018-12-13T19:45:59.191Z,29.53
2018-12-13T19:51:01.493Z,31.60
2018-12-13T19:56:03.759Z,31.10
2018-12-13T20:01:06.033Z,33.63
2018-12-13T20:06:08.965Z,34.77
2018-12-13T20:11:11.122Z,31.00
2018-12-13T20:16:13.390Z,32.17
2018-12-13T20:21:15.537Z,31.30
2018-12-13T20:26:17.756Z,31.83
2018-12-13T20:31:19.905Z,30.77
2018-12-13T20:36:22.183Z,30.13
2018-12-13T20:41:24.499Z,31.10
2018-12-13T20:46:27.233Z,29.47
2018-12-13T20:51:29.521Z,26.13
2018-12-13T20:56:31.834Z,29.50
2018-12-13T21:01:33.985Z,26.87
2018-12-13T21:06:36.219Z,28.10
2018-12-13T21:11:38.418Z,26.57
2018-12-13T21:16:40.605Z,26.50
2018-12-13T21:21:42.827Z,24.63
2018-12-13T21:26:45.940Z,26.87
2018-12-13T21:31:48.085Z,24.47
2018-12-13T21:36:50.245Z,26.57
2018-12-13T21:41:52.449Z,24.90
2018-12-13T21:46:54.729Z,25.97
2018-12-13T21:51:56.975Z,25.93
2018-12-13T21:56:59.494Z,25.87
2018-12-13T22:02:01.790Z,25.30
2018-12-13T22:07:04.111Z,24.83
2018-12-13T22:12:06.404Z,24.73
2018-12-13T22:17:08.586Z,25.00
2018-12-13T22:22:10.754Z,25.53
2018-12-13T22:27:12.905Z,23.87
2018-12-13T22:32:16.077Z,26.23
2018-12-13T22:37:18.129Z,26.87
2018-12-13T22:42:20.422Z,24.90
2018-12-13T22:47:22.714Z,26.20
2018-12-13T22:52:24.902Z,27.33
2018-12-13T22:57:27.183Z,28.10
2018-12-13T23:02:29.481Z,29.33
2018-12-13T23:07:31.633Z,28.37
2018-12-13T23:12:33.729Z,27.63
2018-12-13T23:17:35.928Z,26.10
2018-12-13T23:22:38.078Z,23.97
2018-12-13T23:27:40.139Z,25.03
2018-12-13T23:32:42.227Z,26.37
2018-12-13T23:37:44.263Z,26.80
2018-12-13T23:42:46.423Z,25.40
2018-12-13T23:47:48.584Z,27.63
2018-12-13T23:52:51.736Z,26.37
2018-12-13T23:57:53.894Z,27.00
